createdAt,value
2018-05-24T00:00:05.049Z,58.70
2018-05-24T00:01:05.239Z,58.98
2018-05-24T00:02:05.128Z,58.98
2018-05-24T00:03:05.170Z,59.27
2018-05-24T00:04:05.212Z,59.08
2018-05-24T00:05:05.257Z,59.37
2018-05-24T00:06:05.293Z,59.17
2018-05-24T00:07:05.332Z,59.66
2018-05-24T00:08:05.370Z,59.75
2018-05-24T00:09:05.412Z,59.37
2018-05-24T00:10:05.449Z,58.98
2018-05-24T00:11:05.488Z,58.89
2018-05-24T00:12:05.530Z,58.89
2018-05-24T00:13:05.571Z,59.17
2018-05-24T00:14:05.611Z,58.50
2018-05-24T00:15:05.651Z,58.70
2018-05-24T00:16:05.690Z,58.89
2018-05-24T00:17:05.729Z,58.89
2018-05-24T00:18:05.820Z,58.50
2018-05-24T00:19:05.814Z,58.50
2018-05-24T00:20:05.849Z,58.89
2018-05-24T00:21:05.889Z,59.37
2018-05-24T00:22:05.931Z,59.08
2018-05-24T00:23:05.968Z,58.98
2018-05-24T00:24:06.011Z,58.70
2018-05-24T00:25:06.051Z,58.98
2018-05-24T00:26:06.091Z,58.98
2018-05-24T00:27:06.129Z,59.47
2018-05-24T00:28:06.169Z,59.27
2018-05-24T00:29:06.214Z,59.47
2018-05-24T00:30:06.250Z,59.66
2018-05-24T00:31:06.289Z,59.85
2018-05-24T00:32:06.335Z,60.62
2018-05-24T00:33:06.368Z,60.33
2018-05-24T00:34:06.411Z,60.91
2018-05-24T00:35:06.451Z,60.97
2018-05-24T00:36:06.489Z,61.55
2018-05-24T00:37:06.529Z,61.65
2018-05-24T00:38:06.568Z,61.65
2018-05-24T00:39:06.611Z,61.65
2018-05-24T00:40:06.649Z,62.13
2018-05-24T00:41:06.689Z,62.71
2018-05-24T00:42:06.729Z,63.18
2018-05-24T00:43:06.772Z,63.09
2018-05-24T00:44:06.809Z,64.25
2018-05-24T00:45:06.849Z,64.15
2018-05-24T00:46:06.887Z,64.43
2018-05-24T00:47:06.927Z,65.75
2018-05-24T00:48:06.970Z,66.91
2018-05-24T00:49:07.023Z,67.19
2018-05-24T00:50:07.047Z,67.38
2018-05-24T00:51:07.087Z,68.35
2018-05-24T00:52:07.126Z,68.06
2018-05-24T00:53:07.166Z,68.21
2018-05-24T00:54:07.206Z,69.27
2018-05-24T00:55:07.248Z,70.33
2018-05-24T00:56:07.286Z,70.81
2018-05-24T00:57:07.329Z,70.81
2018-05-24T00:58:07.372Z,71.87
2018-05-24T00:59:07.410Z,72.44
2018-05-24T01:00:07.447Z,72.06
2018-05-24T01:01:07.485Z,72.06
2018-05-24T01:02:07.525Z,70.81
2018-05-24T01:03:07.566Z,71.29
2018-05-24T01:04:07.606Z,72.34
2018-05-24T01:05:07.702Z,72.44
2018-05-24T01:06:07.686Z,72.31
2018-05-24T01:07:07.728Z,72.02
2018-05-24T01:08:07.766Z,71.06
2018-05-24T01:09:07.805Z,70.90
2018-05-24T01:10:07.844Z,71.25
2018-05-24T01:11:07.885Z,71.35
2018-05-24T01:12:07.924Z,71.10
2018-05-24T01:13:07.968Z,71.19
2018-05-24T01:14:08.004Z,70.72
2018-05-24T01:15:08.044Z,71.39
2018-05-24T01:16:08.082Z,70.81
2018-05-24T01:17:08.119Z,71.29
2018-05-24T01:18:08.161Z,71.00
2018-05-24T01:19:08.201Z,71.00
2018-05-24T01:20:08.241Z,72.69
2018-05-24T01:21:08.279Z,73.56
2018-05-24T01:22:08.320Z,73.66
2018-05-24T01:23:08.364Z,74.43
2018-05-24T01:24:08.401Z,75.38
2018-05-24T01:25:08.447Z,74.81
2018-05-24T01:26:08.481Z,76.12
2018-05-24T01:27:08.518Z,76.40
2018-05-24T01:28:08.560Z,76.79
2018-05-24T01:29:08.598Z,77.08
2018-05-24T01:30:08.638Z,77.08
2018-05-24T01:31:08.732Z,77.17
2018-05-24T01:32:08.719Z,77.75
2018-05-24T01:33:08.761Z,78.61
2018-05-24T01:34:08.797Z,78.90
2018-05-24T01:35:08.883Z,78.86
2018-05-24T01:36:08.877Z,79.47
2018-05-24T01:37:08.927Z,79.82
2018-05-24T01:38:08.956Z,80.40
2018-05-24T01:39:08.994Z,80.58
2018-05-24T01:40:09.034Z,81.16
2018-05-24T01:41:09.074Z,80.58
2018-05-24T01:42:09.113Z,79.44
2018-05-24T01:43:09.152Z,79.14
2018-05-24T01:44:09.199Z,79.05
2018-05-24T01:45:09.228Z,79.72
2018-05-24T01:46:09.271Z,79.63
2018-05-24T01:47:09.311Z,79.14
2018-05-24T01:48:09.349Z,78.77
2018-05-24T01:49:09.388Z,79.53
2018-05-24T01:50:09.429Z,81.16
2018-05-24T01:51:09.476Z,82.31
2018-05-24T01:52:09.507Z,83.56
2018-05-24T01:53:09.544Z,83.75
2018-05-24T01:54:09.589Z,85.00
2018-05-24T01:55:09.633Z,85.67
2018-05-24T01:56:09.667Z,86.92
2018-05-24T01:57:09.701Z,85.38
2018-05-24T01:58:09.742Z,86.63
2018-05-24T01:59:09.846Z,87.64
2018-05-24T02:00:09.825Z,87.84
2018-05-24T02:01:09.859Z,88.02
2018-05-24T02:02:09.902Z,89.75
2018-05-24T02:03:09.940Z,90.33
2018-05-24T02:04:09.979Z,89.75
2018-05-24T02:05:10.018Z,90.52
2018-05-24T02:06:10.056Z,90.23
2018-05-24T02:07:10.097Z,90.14
2018-05-24T02:08:10.136Z,90.33
2018-05-24T02:09:10.175Z,90.04
2018-05-24T02:10:10.214Z,89.75
2018-05-24T02:11:10.263Z,90.61
2018-05-24T02:12:10.295Z,89.18
2018-05-24T02:13:10.398Z,90.04
2018-05-24T02:14:10.369Z,90.42
2018-05-24T02:15:10.415Z,90.00
2018-05-24T02:16:10.448Z,89.94
2018-05-24T02:17:10.489Z,89.61
2018-05-24T02:18:10.529Z,90.52
2018-05-24T02:19:10.569Z,90.23
2018-05-24T02:20:10.607Z,91.63
2018-05-24T02:21:10.645Z,90.57
2018-05-24T02:22:10.684Z,91.53
2018-05-24T02:23:10.723Z,90.86
2018-05-24T02:24:10.763Z,91.24
2018-05-24T02:25:10.800Z,91.43
2018-05-24T02:26:10.841Z,92.68
2018-05-24T02:27:10.880Z,92.30
2018-05-24T02:28:10.920Z,92.20
2018-05-24T02:29:10.980Z,91.72
2018-05-24T02:30:11.000Z,91.43
2018-05-24T02:31:11.037Z,92.10
2018-05-24T02:32:11.075Z,93.35
2018-05-24T02:33:11.113Z,92.77
2018-05-24T02:34:11.184Z,92.77
2018-05-24T02:35:11.192Z,92.68
2018-05-24T02:36:11.233Z,93.16
2018-05-24T02:37:11.276Z,94.69
2018-05-24T02:38:11.310Z,94.31
2018-05-24T02:39:11.347Z,94.69
2018-05-24T02:40:11.390Z,96.13
2018-05-24T02:41:11.427Z,95.12
2018-05-24T02:42:11.465Z,95.41
2018-05-24T02:43:11.505Z,96.66
2018-05-24T02:44:11.543Z,97.04
2018-05-24T02:45:11.588Z,97.04
2018-05-24T02:46:11.669Z,97.80
2018-05-24T02:47:11.660Z,98.47
2018-05-24T02:48:11.699Z,98.96
2018-05-24T02:49:11.737Z,99.63
2018-05-24T02:50:11.777Z,99.43
2018-05-24T02:51:11.863Z,99.99
2018-05-24T02:52:11.857Z,99.99
2018-05-24T02:53:11.957Z,99.63
2018-05-24T02:54:11.947Z,99.87
2018-05-24T02:55:11.970Z,99.99
2018-05-24T02:56:12.011Z,99.99
2018-05-24T02:57:12.045Z,99.99
2018-05-24T02:58:12.088Z,99.99
2018-05-24T02:59:12.136Z,99.99
2018-05-24T03:00:12.172Z,99.99
2018-05-24T03:01:12.202Z,99.99
2018-05-24T03:02:12.242Z,99.99
2018-05-24T03:03:12.280Z,99.99
2018-05-24T03:04:12.326Z,99.99
2018-05-24T03:05:12.360Z,99.99
2018-05-24T03:06:12.400Z,99.99
2018-05-24T03:07:12.441Z,99.99
2018-05-24T03:08:12.473Z,99.99
2018-05-24T03:09:12.517Z,99.99
2018-05-24T03:10:12.550Z,99.99
2018-05-24T03:11:12.591Z,99.99
2018-05-24T03:12:12.628Z,99.99
2018-05-24T03:13:12.665Z,99.99
2018-05-24T03:14:12.711Z,99.99
2018-05-24T03:15:12.761Z,99.99
2018-05-24T03:16:12.786Z,99.99
2018-05-24T03:17:12.820Z,99.99
2018-05-24T03:18:12.859Z,99.99
2018-05-24T03:19:12.899Z,99.99
2018-05-24T03:20:12.942Z,99.99
2018-05-24T03:21:12.974Z,99.99
2018-05-24T03:22:13.014Z,99.99
2018-05-24T03:23:13.091Z,99.99
2018-05-24T03:24:13.094Z,99.99
2018-05-24T03:25:13.129Z,99.99
2018-05-24T03:26:13.172Z,99.99
2018-05-24T03:27:13.208Z,99.99
2018-05-24T03:28:13.250Z,99.99
2018-05-24T03:29:13.285Z,99.99
2018-05-24T03:30:13.323Z,99.99
2018-05-24T03:31:13.368Z,99.99
2018-05-24T03:32:13.406Z,99.99
2018-05-24T03:33:13.443Z,99.99
2018-05-24T03:34:13.479Z,99.99
2018-05-24T03:35:13.616Z,99.99
2018-05-24T03:36:13.556Z,99.99
2018-05-24T03:37:13.594Z,99.99
2018-05-24T03:38:13.648Z,99.99
2018-05-24T03:39:13.674Z,99.99
2018-05-24T03:40:13.712Z,99.99
2018-05-24T03:41:13.749Z,99.99
2018-05-24T03:42:13.786Z,99.99
2018-05-24T03:43:13.826Z,99.99
2018-05-24T03:44:13.866Z,99.99
2018-05-24T03:45:13.904Z,99.99
2018-05-24T03:46:13.943Z,99.99
2018-05-24T03:47:13.984Z,99.99
2018-05-24T03:48:14.024Z,99.99
2018-05-24T03:49:14.056Z,99.99
2018-05-24T03:50:14.094Z,99.99
2018-05-24T03:51:14.135Z,99.99
2018-05-24T03:52:14.239Z,99.99
2018-05-24T03:53:14.211Z,99.99
2018-05-24T03:54:14.248Z,99.99
2018-05-24T03:55:14.324Z,99.99
2018-05-24T03:56:14.328Z,99.99
2018-05-24T03:57:14.369Z,99.99
2018-05-24T03:58:14.405Z,99.99
2018-05-24T03:59:14.445Z,99.99
2018-05-24T04:00:14.482Z,99.99
2018-05-24T04:01:14.524Z,99.99
2018-05-24T04:02:14.560Z,99.99
2018-05-24T04:03:14.597Z,99.99
2018-05-24T04:04:14.638Z,99.99
2018-05-24T04:05:14.675Z,99.99
2018-05-24T04:06:14.714Z,99.99
2018-05-24T04:07:14.752Z,99.99
2018-05-24T04:08:14.795Z,99.99
2018-05-24T04:09:14.831Z,99.99
2018-05-24T04:10:14.870Z,99.99
2018-05-24T04:11:14.910Z,99.99
2018-05-24T04:12:14.950Z,99.99
2018-05-24T04:13:15.036Z,99.99
2018-05-24T04:14:15.028Z,99.99
2018-05-24T04:15:15.063Z,99.99
2018-05-24T04:16:15.103Z,99.99
2018-05-24T04:17:15.144Z,99.99
2018-05-24T04:18:15.180Z,99.99
2018-05-24T04:19:15.222Z,99.99
2018-05-24T04:20:15.260Z,99.99
2018-05-24T04:21:15.300Z,99.99
2018-05-24T04:22:15.345Z,99.99
2018-05-24T04:23:15.410Z,99.99
2018-05-24T04:24:15.414Z,99.99
2018-05-24T04:25:15.456Z,99.99
2018-05-24T04:26:15.491Z,99.99
2018-05-24T04:27:15.530Z,99.99
2018-05-24T04:28:15.570Z,99.99
2018-05-24T04:29:15.609Z,99.99
2018-05-24T04:30:15.658Z,99.99
2018-05-24T04:31:15.690Z,99.99
2018-05-24T04:32:15.725Z,99.99
2018-05-24T04:33:15.764Z,99.99
2018-05-24T04:34:15.804Z,99.99
2018-05-24T04:35:15.849Z,99.99
2018-05-24T04:36:15.882Z,99.99
2018-05-24T04:37:15.918Z,99.99
2018-05-24T04:38:15.957Z,99.99
2018-05-24T04:39:15.997Z,99.99
2018-05-24T04:40:16.037Z,99.99
2018-05-24T04:41:16.076Z,99.99
2018-05-24T04:42:16.112Z,99.99
2018-05-24T04:43:16.156Z,99.99
2018-05-24T04:44:16.192Z,99.99
2018-05-24T04:45:16.238Z,99.99
2018-05-24T04:46:16.292Z,99.99
2018-05-24T04:47:16.309Z,99.99
2018-05-24T04:48:16.346Z,99.99
2018-05-24T04:49:16.383Z,99.99
2018-05-24T04:50:16.426Z,99.99
2018-05-24T04:51:16.461Z,99.99
2018-05-24T04:52:16.515Z,99.99
2018-05-24T04:53:16.547Z,99.99
2018-05-24T04:54:16.583Z,99.99
2018-05-24T04:55:16.617Z,99.99
2018-05-24T04:56:16.655Z,99.99
2018-05-24T04:57:16.701Z,99.99
2018-05-24T04:58:16.732Z,99.99
2018-05-24T04:59:16.772Z,99.48
2018-05-24T05:00:16.821Z,98.52
2018-05-24T05:01:16.853Z,99.58
2018-05-24T05:02:16.888Z,98.52
2018-05-24T05:03:16.929Z,98.14
2018-05-24T05:04:16.970Z,97.85
2018-05-24T05:05:17.003Z,98.52
2018-05-24T05:06:17.044Z,97.47
2018-05-24T05:07:17.086Z,97.38
2018-05-24T05:08:17.120Z,96.61
2018-05-24T05:09:17.161Z,96.42
2018-05-24T05:10:17.350Z,96.32
2018-05-24T05:11:17.247Z,96.70
2018-05-24T05:12:17.277Z,95.84
2018-05-24T05:13:17.318Z,96.75
2018-05-24T05:14:17.358Z,96.66
2018-05-24T05:15:17.392Z,96.47
2018-05-24T05:16:17.430Z,95.79
2018-05-24T05:17:17.517Z,95.89
2018-05-24T05:18:17.512Z,95.89
2018-05-24T05:19:17.546Z,95.51
2018-05-24T05:20:17.588Z,95.12
2018-05-24T05:21:17.626Z,95.31
2018-05-24T05:22:17.664Z,94.93
2018-05-24T05:23:17.776Z,94.84
2018-05-24T05:24:17.743Z,93.68
2018-05-24T05:25:17.878Z,93.59
2018-05-24T05:26:17.824Z,93.49
2018-05-24T05:27:17.861Z,93.78
2018-05-24T05:28:17.900Z,93.59
2018-05-24T05:29:17.949Z,93.88
2018-05-24T05:30:17.976Z,93.11
2018-05-24T05:31:18.035Z,93.68
2018-05-24T05:32:18.054Z,93.73
2018-05-24T05:33:18.102Z,92.91
2018-05-24T05:34:18.131Z,92.86
2018-05-24T05:35:18.171Z,93.21
2018-05-24T05:36:18.210Z,92.29
2018-05-24T05:37:18.253Z,93.63
2018-05-24T05:38:18.365Z,92.63
2018-05-24T05:39:18.328Z,93.06
2018-05-24T05:40:18.370Z,93.59
2018-05-24T05:41:18.410Z,94.49
2018-05-24T05:42:18.445Z,95.07
2018-05-24T05:43:18.491Z,94.49
2018-05-24T05:44:18.528Z,93.54
2018-05-24T05:45:18.565Z,92.39
2018-05-24T05:46:18.653Z,92.48
2018-05-24T05:47:18.642Z,91.14
2018-05-24T05:48:18.684Z,92.86
2018-05-24T05:49:18.728Z,91.72
2018-05-24T05:50:18.761Z,92.58
2018-05-24T05:51:18.799Z,90.66
2018-05-24T05:52:18.840Z,90.56
2018-05-24T05:53:18.880Z,91.81
2018-05-24T05:54:18.919Z,91.81
2018-05-24T05:55:18.958Z,91.52
2018-05-24T05:56:19.001Z,90.37
2018-05-24T05:57:19.036Z,90.70
2018-05-24T05:58:19.076Z,89.26
2018-05-24T05:59:19.114Z,88.59
2018-05-24T06:00:19.159Z,88.79
2018-05-24T06:01:19.192Z,89.75
2018-05-24T06:02:19.234Z,90.03
2018-05-24T06:03:19.273Z,88.31
2018-05-24T06:04:19.314Z,86.62
2018-05-24T06:05:19.353Z,87.39
2018-05-24T06:06:19.390Z,86.91
2018-05-24T06:07:19.487Z,86.62
2018-05-24T06:08:19.473Z,86.52
2018-05-24T06:09:19.514Z,86.85
2018-05-24T06:10:19.553Z,85.99
2018-05-24T06:11:19.594Z,85.03
2018-05-24T06:12:19.641Z,84.59
2018-05-24T06:13:19.672Z,82.48
2018-05-24T06:14:19.719Z,82.96
2018-05-24T06:15:19.810Z,82.86
2018-05-24T06:16:19.793Z,81.32
2018-05-24T06:17:19.832Z,81.84
2018-05-24T06:18:19.869Z,81.75
2018-05-24T06:19:19.913Z,80.88
2018-05-24T06:20:19.952Z,79.96
2018-05-24T06:21:19.992Z,80.15
2018-05-24T06:22:20.030Z,80.15
2018-05-24T06:23:20.071Z,80.38
2018-05-24T06:24:20.111Z,77.78
2018-05-24T06:25:20.154Z,77.11
2018-05-24T06:26:20.194Z,76.82
2018-05-24T06:27:20.232Z,76.73
2018-05-24T06:28:20.283Z,76.82
2018-05-24T06:29:20.316Z,77.21
2018-05-24T06:30:20.353Z,78.75
2018-05-24T06:31:20.397Z,78.21
2018-05-24T06:32:20.437Z,78.59
2018-05-24T06:33:20.476Z,77.34
2018-05-24T06:34:20.517Z,76.80
2018-05-24T06:35:20.562Z,75.74
2018-05-24T06:36:20.601Z,75.84
2018-05-24T06:37:20.713Z,75.32
2018-05-24T06:38:20.684Z,76.28
2018-05-24T06:39:20.733Z,76.57
2018-05-24T06:40:20.816Z,76.96
2018-05-24T06:41:20.810Z,77.86
2018-05-24T06:42:20.855Z,76.18
2018-05-24T06:43:20.896Z,76.80
2018-05-24T06:44:20.930Z,77.00
2018-05-24T06:45:20.972Z,77.09
2018-05-24T06:46:21.098Z,76.09
2018-05-24T06:47:21.058Z,76.67
2018-05-24T06:48:21.100Z,77.63
2018-05-24T06:49:21.139Z,77.73
2018-05-24T06:50:21.180Z,76.96
2018-05-24T06:51:21.223Z,76.92
2018-05-24T06:52:21.264Z,77.31
2018-05-24T06:53:21.308Z,77.40
2018-05-24T06:54:21.345Z,78.90
2018-05-24T06:55:21.385Z,79.48
2018-05-24T06:56:21.428Z,78.56
2018-05-24T06:57:21.471Z,78.94
2018-05-24T06:58:21.513Z,79.13
2018-05-24T06:59:21.653Z,77.34
2018-05-24T07:00:21.596Z,77.40
2018-05-24T07:01:21.635Z,76.92
2018-05-24T07:02:21.677Z,76.82
2018-05-24T07:03:21.726Z,77.01
2018-05-24T07:04:21.768Z,76.82
2018-05-24T07:05:21.799Z,76.34
2018-05-24T07:06:21.842Z,76.63
2018-05-24T07:07:21.883Z,76.82
2018-05-24T07:08:21.927Z,76.92
2018-05-24T07:09:21.970Z,76.63
2018-05-24T07:10:22.008Z,76.73
2018-05-24T07:11:22.051Z,77.01
2018-05-24T07:12:22.097Z,77.31
2018-05-24T07:13:22.287Z,77.98
2018-05-24T07:14:22.183Z,77.88
2018-05-24T07:15:22.220Z,78.42
2018-05-24T07:16:22.272Z,79.28
2018-05-24T07:17:22.302Z,79.44
2018-05-24T07:18:22.342Z,79.63
2018-05-24T07:19:22.385Z,80.50
2018-05-24T07:20:22.578Z,80.60
2018-05-24T07:21:22.465Z,80.11
2018-05-24T07:22:22.508Z,80.30
2018-05-24T07:23:22.556Z,80.65
2018-05-24T07:24:22.588Z,81.23
2018-05-24T07:25:22.629Z,81.42
2018-05-24T07:26:22.673Z,82.63
2018-05-24T07:27:22.713Z,83.01
2018-05-24T07:28:22.755Z,82.53
2018-05-24T07:29:22.811Z,83.20
2018-05-24T07:30:22.839Z,83.11
2018-05-24T07:31:22.875Z,82.82
2018-05-24T07:32:22.925Z,82.67
2018-05-24T07:33:22.957Z,83.06
2018-05-24T07:34:23.000Z,82.96
2018-05-24T07:35:23.038Z,82.57
2018-05-24T07:36:23.080Z,82.23
2018-05-24T07:37:23.119Z,82.29
2018-05-24T07:38:23.167Z,82.86
2018-05-24T07:39:23.203Z,82.86
2018-05-24T07:40:23.256Z,82.86
2018-05-24T07:41:23.284Z,83.15
2018-05-24T07:42:23.324Z,83.44
2018-05-24T07:43:23.374Z,83.44
2018-05-24T07:44:23.407Z,83.92
2018-05-24T07:45:23.450Z,84.50
2018-05-24T07:46:23.487Z,84.98
2018-05-24T07:47:23.531Z,84.78
2018-05-24T07:48:23.572Z,84.69
2018-05-24T07:49:23.607Z,84.21
2018-05-24T07:50:23.657Z,84.88
2018-05-24T07:51:23.691Z,84.40
2018-05-24T07:52:23.729Z,85.46
2018-05-24T07:53:23.825Z,85.75
2018-05-24T07:54:23.812Z,85.17
2018-05-24T07:55:23.851Z,85.65
2018-05-24T07:56:23.901Z,85.07
2018-05-24T07:57:23.939Z,85.17
2018-05-24T07:58:23.974Z,84.69
2018-05-24T07:59:24.020Z,84.92
2018-05-24T08:00:24.055Z,84.44
2018-05-24T08:01:24.101Z,84.78
2018-05-24T08:02:24.141Z,84.44
2018-05-24T08:03:24.177Z,85.36
2018-05-24T08:04:24.217Z,86.57
2018-05-24T08:05:24.256Z,87.34
2018-05-24T08:06:24.299Z,87.24
2018-05-24T08:07:24.339Z,88.01
2018-05-24T08:08:24.378Z,88.59
2018-05-24T08:09:24.419Z,88.78
2018-05-24T08:10:24.460Z,89.07
2018-05-24T08:11:24.510Z,89.45
2018-05-24T08:12:24.552Z,90.31
2018-05-24T08:13:24.584Z,89.74
2018-05-24T08:14:24.777Z,90.03
2018-05-24T08:15:24.661Z,90.60
2018-05-24T08:16:24.707Z,90.41
2018-05-24T08:17:24.748Z,91.04
2018-05-24T08:18:24.785Z,90.89
2018-05-24T08:19:24.826Z,92.00
2018-05-24T08:20:24.868Z,91.90
2018-05-24T08:21:24.903Z,92.00
2018-05-24T08:22:24.967Z,92.67
2018-05-24T08:23:24.984Z,92.29
2018-05-24T08:24:25.025Z,93.73
2018-05-24T08:25:25.063Z,92.86
2018-05-24T08:26:25.107Z,93.63
2018-05-24T08:27:25.148Z,94.01
2018-05-24T08:28:25.188Z,92.77
2018-05-24T08:29:25.226Z,93.54
2018-05-24T08:30:25.272Z,93.44
2018-05-24T08:31:25.304Z,93.54
2018-05-24T08:32:25.346Z,93.63
2018-05-24T08:33:25.390Z,93.82
2018-05-24T08:34:25.426Z,93.54
2018-05-24T08:35:25.518Z,93.82
2018-05-24T08:36:25.508Z,93.73
2018-05-24T08:37:25.557Z,93.82
2018-05-24T08:38:25.585Z,94.69
2018-05-24T08:39:25.625Z,94.98
2018-05-24T08:40:25.665Z,94.74
2018-05-24T08:41:25.712Z,95.36
2018-05-24T08:42:25.749Z,95.79
2018-05-24T08:43:25.785Z,95.65
2018-05-24T08:44:25.824Z,95.75
2018-05-24T08:45:25.865Z,95.55
2018-05-24T08:46:25.902Z,95.17
2018-05-24T08:47:25.998Z,95.55
2018-05-24T08:48:25.991Z,95.65
2018-05-24T08:49:26.026Z,96.03
2018-05-24T08:50:26.064Z,95.75
2018-05-24T08:51:26.102Z,96.42
2018-05-24T08:52:26.155Z,96.18
2018-05-24T08:53:26.188Z,96.75
2018-05-24T08:54:26.232Z,96.22
2018-05-24T08:55:26.270Z,96.47
2018-05-24T08:56:26.301Z,96.42
2018-05-24T08:57:26.342Z,96.56
2018-05-24T08:58:26.381Z,95.65
2018-05-24T08:59:26.420Z,95.65
2018-05-24T09:00:26.468Z,95.17
2018-05-24T09:01:26.665Z,95.94
2018-05-24T09:02:26.543Z,95.26
2018-05-24T09:03:26.582Z,95.45
2018-05-24T09:04:26.621Z,95.75
2018-05-24T09:05:26.658Z,95.75
2018-05-24T09:06:26.699Z,96.03
2018-05-24T09:07:26.738Z,95.94
2018-05-24T09:08:26.781Z,96.03
2018-05-24T09:09:26.820Z,94.78
2018-05-24T09:10:26.859Z,95.65
2018-05-24T09:11:26.899Z,95.07
2018-05-24T09:12:26.948Z,94.78
2018-05-24T09:13:26.976Z,94.93
2018-05-24T09:14:27.026Z,93.92
2018-05-24T09:15:27.056Z,94.06
2018-05-24T09:16:27.103Z,95.40
2018-05-24T09:17:27.141Z,94.83
2018-05-24T09:18:27.174Z,94.06
2018-05-24T09:19:27.215Z,94.54
2018-05-24T09:20:27.262Z,94.35
2018-05-24T09:21:27.294Z,94.16
2018-05-24T09:22:27.333Z,93.58
2018-05-24T09:23:27.380Z,93.63
2018-05-24T09:24:27.432Z,93.91
2018-05-24T09:25:27.456Z,92.96
2018-05-24T09:26:27.494Z,92.61
2018-05-24T09:27:27.556Z,90.59
2018-05-24T09:28:27.581Z,90.31
2018-05-24T09:29:27.706Z,90.06
2018-05-24T09:30:27.655Z,88.91
2018-05-24T09:31:27.693Z,87.46
2018-05-24T09:32:27.736Z,86.99
2018-05-24T09:33:27.776Z,87.46
2018-05-24T09:34:27.815Z,88.87
2018-05-24T09:35:27.857Z,89.06
2018-05-24T09:36:27.896Z,90.21
2018-05-24T09:37:27.945Z,90.21
2018-05-24T09:38:27.976Z,90.12
2018-05-24T09:39:28.017Z,90.31
2018-05-24T09:40:28.060Z,90.50
2018-05-24T09:41:28.097Z,90.69
2018-05-24T09:42:28.139Z,90.59
2018-05-24T09:43:28.179Z,90.50
2018-05-24T09:44:28.222Z,90.69
2018-05-24T09:45:28.261Z,90.59
2018-05-24T09:46:28.302Z,90.31
2018-05-24T09:47:28.340Z,90.75
2018-05-24T09:48:28.382Z,90.94
2018-05-24T09:49:28.421Z,92.19
2018-05-24T09:50:28.465Z,92.13
2018-05-24T09:51:28.509Z,91.90
2018-05-24T09:52:28.544Z,93.63
2018-05-24T09:53:28.588Z,93.82
2018-05-24T09:54:28.633Z,94.11
2018-05-24T09:55:28.716Z,95.26
2018-05-24T09:56:28.707Z,94.59
2018-05-24T09:57:28.747Z,94.68
2018-05-24T09:58:28.789Z,95.75
2018-05-24T09:59:28.827Z,96.32
2018-05-24T10:00:28.869Z,95.55
2018-05-24T10:01:28.909Z,96.13
2018-05-24T10:02:28.951Z,96.32
2018-05-24T10:03:28.999Z,96.03
2018-05-24T10:04:29.030Z,96.42
2018-05-24T10:05:29.080Z,96.42
2018-05-24T10:06:29.114Z,96.32
2018-05-24T10:07:29.170Z,98.53
2018-05-24T10:08:29.192Z,98.24
2018-05-24T10:09:29.232Z,97.09
2018-05-24T10:10:29.333Z,98.44
2018-05-24T10:11:29.315Z,96.32
2018-05-24T10:12:29.358Z,95.60
2018-05-24T10:13:29.456Z,98.19
2018-05-24T10:14:29.451Z,97.62
2018-05-24T10:15:29.477Z,98.19
2018-05-24T10:16:29.554Z,99.44
2018-05-24T10:17:29.555Z,99.15
2018-05-24T10:18:29.596Z,98.48
2018-05-24T10:19:29.640Z,98.77
2018-05-24T10:20:29.677Z,98.39
2018-05-24T10:21:29.721Z,97.52
2018-05-24T10:22:29.773Z,96.42
2018-05-24T10:23:29.802Z,96.99
2018-05-24T10:24:29.840Z,97.04
2018-05-24T10:25:29.879Z,95.17
2018-05-24T10:26:29.926Z,94.01
2018-05-24T10:27:29.960Z,91.27
2018-05-24T10:28:30.008Z,92.81
2018-05-24T10:29:30.045Z,93.29
2018-05-24T10:30:30.084Z,92.23
2018-05-24T10:31:30.124Z,92.91
2018-05-24T10:32:30.169Z,93.00
2018-05-24T10:33:30.207Z,93.24
2018-05-24T10:34:30.249Z,93.15
2018-05-24T10:35:30.289Z,95.07
2018-05-24T10:36:30.329Z,95.50
2018-05-24T10:37:30.376Z,94.83
2018-05-24T10:38:30.410Z,94.83
2018-05-24T10:39:30.505Z,93.96
2018-05-24T10:40:30.495Z,93.77
2018-05-24T10:41:30.533Z,93.68
2018-05-24T10:42:30.574Z,93.19
2018-05-24T10:43:30.618Z,92.71
2018-05-24T10:44:30.656Z,92.76
2018-05-24T10:45:30.696Z,92.18
2018-05-24T10:46:30.743Z,91.03
2018-05-24T10:47:30.779Z,90.83
2018-05-24T10:48:30.821Z,90.55
2018-05-24T10:49:30.861Z,92.03
2018-05-24T10:50:30.904Z,90.40
2018-05-24T10:51:30.960Z,89.67
2018-05-24T10:52:30.985Z,90.16
2018-05-24T10:53:31.035Z,89.77
2018-05-24T10:54:31.075Z,88.32
2018-05-24T10:55:31.109Z,88.27
2018-05-24T10:56:31.151Z,86.82
2018-05-24T10:57:31.192Z,86.82
2018-05-24T10:58:31.240Z,86.25
2018-05-24T10:59:31.292Z,85.67
2018-05-24T11:00:31.318Z,84.42
2018-05-24T11:01:31.362Z,84.22
2018-05-24T11:02:31.401Z,84.72
2018-05-24T11:03:31.448Z,85.39
2018-05-24T11:04:31.485Z,86.22
2018-05-24T11:05:31.525Z,86.99
2018-05-24T11:06:31.568Z,88.10
2018-05-24T11:07:31.610Z,88.48
2018-05-24T11:08:31.652Z,88.67
2018-05-24T11:09:31.700Z,89.54
2018-05-24T11:10:31.738Z,89.15
2018-05-24T11:11:31.830Z,90.79
2018-05-24T11:12:31.829Z,91.66
2018-05-24T11:13:31.860Z,91.52
2018-05-24T11:14:31.906Z,92.67
2018-05-24T11:15:31.943Z,92.76
2018-05-24T11:16:31.987Z,94.40
2018-05-24T11:17:32.033Z,95.84
2018-05-24T11:18:32.066Z,95.17
2018-05-24T11:19:32.109Z,95.31
2018-05-24T11:20:32.149Z,96.66
2018-05-24T11:21:32.192Z,96.47
2018-05-24T11:22:32.239Z,97.52
2018-05-24T11:23:32.275Z,98.29
2018-05-24T11:24:32.315Z,97.57
2018-05-24T11:25:32.363Z,96.51
2018-05-24T11:26:32.408Z,96.66
2018-05-24T11:27:32.445Z,96.13
2018-05-24T11:28:32.477Z,96.94
2018-05-24T11:29:32.618Z,97.91
2018-05-24T11:30:32.562Z,97.96
2018-05-24T11:31:32.607Z,97.57
2018-05-24T11:32:32.645Z,98.63
2018-05-24T11:33:32.681Z,99.30
2018-05-24T11:34:32.722Z,98.53
2018-05-24T11:35:32.764Z,98.05
2018-05-24T11:36:32.867Z,99.40
2018-05-24T11:37:32.844Z,99.30
2018-05-24T11:38:32.889Z,99.20
2018-05-24T11:39:32.927Z,99.58
2018-05-24T11:40:32.968Z,99.10
2018-05-24T11:41:33.055Z,99.68
2018-05-24T11:42:33.046Z,99.40
2018-05-24T11:43:33.088Z,98.63
2018-05-24T11:44:33.128Z,99.20
2018-05-24T11:45:33.167Z,99.40
2018-05-24T11:46:33.211Z,99.54
2018-05-24T11:47:33.247Z,99.99
2018-05-24T11:48:33.290Z,99.99
2018-05-24T11:49:33.334Z,99.99
2018-05-24T11:50:33.368Z,99.99
2018-05-24T11:51:33.409Z,99.99
2018-05-24T11:52:33.457Z,99.99
2018-05-24T11:53:33.488Z,99.99
2018-05-24T11:54:33.530Z,99.99
2018-05-24T11:55:33.578Z,99.87
2018-05-24T11:56:33.619Z,99.49
2018-05-24T11:57:33.651Z,99.99
2018-05-24T11:58:33.689Z,99.99
2018-05-24T11:59:33.731Z,99.99
2018-05-24T12:00:33.771Z,99.99
2018-05-24T12:01:33.808Z,99.06
2018-05-24T12:02:33.899Z,99.30
2018-05-24T12:03:33.901Z,99.99
2018-05-24T12:04:33.931Z,99.99
2018-05-24T12:05:33.970Z,99.99
2018-05-24T12:06:34.010Z,99.99
2018-05-24T12:07:34.052Z,99.99
2018-05-24T12:08:34.099Z,99.99
2018-05-24T12:09:34.136Z,98.63
2018-05-24T12:10:34.181Z,98.82
2018-05-24T12:11:34.214Z,98.14
2018-05-24T12:12:34.254Z,97.81
2018-05-24T12:13:34.294Z,97.42
2018-05-24T12:14:34.333Z,97.57
2018-05-24T12:15:34.374Z,99.99
2018-05-24T12:16:34.421Z,99.83
2018-05-24T12:17:34.455Z,98.77
2018-05-24T12:18:34.504Z,94.78
2018-05-24T12:19:34.536Z,96.70
2018-05-24T12:20:34.578Z,97.24
2018-05-24T12:21:34.619Z,96.85
2018-05-24T12:22:34.658Z,97.76
2018-05-24T12:23:34.699Z,96.42
2018-05-24T12:24:34.741Z,98.05
2018-05-24T12:25:34.780Z,96.80
2018-05-24T12:26:34.821Z,97.86
2018-05-24T12:27:34.861Z,98.53
2018-05-24T12:28:34.903Z,99.40
2018-05-24T12:29:34.951Z,99.99
2018-05-24T12:30:34.984Z,99.26
2018-05-24T12:31:35.026Z,99.26
2018-05-24T12:32:35.065Z,97.24
2018-05-24T12:33:35.106Z,96.85
2018-05-24T12:34:35.148Z,95.12
2018-05-24T12:35:35.292Z,96.94
2018-05-24T12:36:35.229Z,98.44
2018-05-24T12:37:35.269Z,97.09
2018-05-24T12:38:35.316Z,96.66
2018-05-24T12:39:35.354Z,97.57
2018-05-24T12:40:35.392Z,96.17
2018-05-24T12:41:35.455Z,94.92
2018-05-24T12:42:35.530Z,96.51
2018-05-24T12:43:35.516Z,96.37
2018-05-24T12:44:35.570Z,96.85
2018-05-24T12:45:35.612Z,97.71
2018-05-24T12:46:35.654Z,96.85
2018-05-24T12:47:35.680Z,98.14
2018-05-24T12:48:35.722Z,95.40
2018-05-24T12:49:35.760Z,96.90
2018-05-24T12:50:35.803Z,98.34
2018-05-24T12:51:35.844Z,99.99
2018-05-24T12:52:35.886Z,99.99